sensor_id;sensor_type;location;lat;lon;timestamp;P1;durP1;ratioP1;P2;durP2;ratioP2
8474;SDS011;4274;52.012;8.448;2022-12-20T00:01:19;46.27;;;6.63;;
8474;SDS011;4274;52.012;8.448;2022-12-20T00:03:47;45.63;;;7.50;;
8474;SDS011;4274;52.012;8.448;2022-12-20T00:06:15;50.83;;;7.83;;
8474;SDS011;4274;52.012;8.448;2022-12-20T00:08:41;47.40;;;7.77;;
8474;SDS011;4274;52.012;8.448;2022-12-20T00:11:07;45.10;;;6.93;;
8474;SDS011;4274;52.012;8.448;2022-12-20T00:13:34;46.70;;;7.50;;
8474;SDS011;4274;52.012;8.448;2022-12-20T00:16:10;45.47;;;6.93;;
8474;SDS011;4274;52.012;8.448;2022-12-20T00:18:41;45.70;;;7.83;;
8474;SDS011;4274;52.012;8.448;2022-12-20T00:21:08;48.43;;;8.00;;
8474;SDS011;4274;52.012;8.448;2022-12-20T00:23:35;47.50;;;7.20;;
8474;SDS011;4274;52.012;8.448;2022-12-20T00:26:09;46.40;;;7.43;;
8474;SDS011;4274;52.012;8.448;2022-12-20T00:28:37;48.80;;;6.70;;
8474;SDS011;4274;52.012;8.448;2022-12-20T00:31:04;44.30;;;6.93;;
8474;SDS011;4274;52.012;8.448;2022-12-20T00:33:31;44.30;;;6.43;;
8474;SDS011;4274;52.012;8.448;2022-12-20T00:35:57;47.27;;;7.77;;
8474;SDS011;4274;52.012;8.448;2022-12-20T00:38:23;46.30;;;6.40;;
8474;SDS011;4274;52.012;8.448;2022-12-20T00:43:31;47.33;;;7.47;;
8474;SDS011;4274;52.012;8.448;2022-12-20T00:45:57;49.17;;;7.20;;
8474;SDS011;4274;52.012;8.448;2022-12-20T00:48:24;45.10;;;6.57;;
8474;SDS011;4274;52.012;8.448;2022-12-20T00:50:50;46.30;;;7.53;;
8474;SDS011;4274;52.012;8.448;2022-12-20T00:53:16;45.67;;;7.10;;
8474;SDS011;4274;52.012;8.448;2022-12-20T00:55:43;46.73;;;6.80;;
8474;SDS011;4274;52.012;8.448;2022-12-20T00:58:10;47.00;;;7.20;;
8474;SDS011;4274;52.012;8.448;2022-12-20T01:00:36;44.90;;;6.00;;
8474;SDS011;4274;52.012;8.448;2022-12-20T01:03:03;45.97;;;6.43;;
8474;SDS011;4274;52.012;8.448;2022-12-20T01:05:29;44.90;;;6.63;;
8474;SDS011;4274;52.012;8.448;2022-12-20T01:07:54;45.80;;;6.67;;
8474;SDS011;4274;52.012;8.448;2022-12-20T01:10:20;46.70;;;7.20;;
8474;SDS011;4274;52.012;8.448;2022-12-20T01:12:45;58.60;;;6.90;;
8474;SDS011;4274;52.012;8.448;2022-12-20T01:15:11;46.77;;;8.07;;
8474;SDS011;4274;52.012;8.448;2022-12-20T01:17:37;44.33;;;5.47;;
8474;SDS011;4274;52.012;8.448;2022-12-20T01:20:03;43.80;;;6.10;;
8474;SDS011;4274;52.012;8.448;2022-12-20T01:22:29;49.20;;;6.50;;
8474;SDS011;4274;52.012;8.448;2022-12-20T01:24:55;49.77;;;7.10;;
8474;SDS011;4274;52.012;8.448;2022-12-20T01:27:20;43.87;;;5.70;;
8474;SDS011;4274;52.012;8.448;2022-12-20T01:29:46;43.77;;;5.60;;
8474;SDS011;4274;52.012;8.448;2022-12-20T01:32:12;44.73;;;5.53;;
8474;SDS011;4274;52.012;8.448;2022-12-20T01:34:37;51.00;;;6.53;;
8474;SDS011;4274;52.012;8.448;2022-12-20T01:37:03;45.37;;;6.23;;
8474;SDS011;4274;52.012;8.448;2022-12-20T01:39:28;47.17;;;6.37;;
8474;SDS011;4274;52.012;8.448;2022-12-20T01:41:54;45.33;;;5.90;;
8474;SDS011;4274;52.012;8.448;2022-12-20T01:46:46;44.33;;;5.40;;
8474;SDS011;4274;52.012;8.448;2022-12-20T01:49:27;44.87;;;6.47;;
8474;SDS011;4274;52.012;8.448;2022-12-20T01:54:25;45.53;;;4.83;;
8474;SDS011;4274;52.012;8.448;2022-12-20T01:57:05;45.07;;;5.43;;
8474;SDS011;4274;52.012;8.448;2022-12-20T01:59:36;43.83;;;5.43;;
8474;SDS011;4274;52.012;8.448;2022-12-20T02:02:05;43.73;;;5.50;;
8474;SDS011;4274;52.012;8.448;2022-12-20T02:04:34;50.50;;;6.20;;
8474;SDS011;4274;52.012;8.448;2022-12-20T02:07:00;46.10;;;5.63;;
8474;SDS011;4274;52.012;8.448;2022-12-20T02:09:27;46.30;;;6.40;;
8474;SDS011;4274;52.012;8.448;2022-12-20T02:12:30;48.43;;;5.10;;
8474;SDS011;4274;52.012;8.448;2022-12-20T02:14:54;46.50;;;5.33;;
8474;SDS011;4274;52.012;8.448;2022-12-20T02:17:52;44.30;;;5.77;;
8474;SDS011;4274;52.012;8.448;2022-12-20T02:32:12;43.57;;;4.77;;
8474;SDS011;4274;52.012;8.448;2022-12-20T02:34:42;47.23;;;5.57;;
8474;SDS011;4274;52.012;8.448;2022-12-20T02:37:09;43.80;;;5.17;;
8474;SDS011;4274;52.012;8.448;2022-12-20T02:39:36;43.87;;;4.60;;
8474;SDS011;4274;52.012;8.448;2022-12-20T02:42:11;42.20;;;4.60;;
8474;SDS011;4274;52.012;8.448;2022-12-20T02:44:40;43.07;;;4.30;;
8474;SDS011;4274;52.012;8.448;2022-12-20T02:47:30;45.77;;;5.00;;
8474;SDS011;4274;52.012;8.448;2022-12-20T02:50:00;47.13;;;5.43;;
8474;SDS011;4274;52.012;8.448;2022-12-20T02:52:27;44.73;;;4.70;;
8474;SDS011;4274;52.012;8.448;2022-12-20T02:54:55;46.90;;;4.90;;
8474;SDS011;4274;52.012;8.448;2022-12-20T02:57:27;45.63;;;5.80;;
8474;SDS011;4274;52.012;8.448;2022-12-20T03:00:05;43.87;;;5.10;;
8474;SDS011;4274;52.012;8.448;2022-12-20T03:02:35;43.00;;;4.90;;
8474;SDS011;4274;52.012;8.448;2022-12-20T03:05:21;46.27;;;5.30;;
8474;SDS011;4274;52.012;8.448;2022-12-20T03:07:49;44.07;;;5.57;;
8474;SDS011;4274;52.012;8.448;2022-12-20T03:10:16;42.50;;;4.90;;
8474;SDS011;4274;52.012;8.448;2022-12-20T03:12:42;44.10;;;4.87;;
8474;SDS011;4274;52.012;8.448;2022-12-20T03:15:08;49.10;;;5.57;;
8474;SDS011;4274;52.012;8.448;2022-12-20T03:17:34;43.03;;;4.60;;
8474;SDS011;4274;52.012;8.448;2022-12-20T03:20:00;44.80;;;5.10;;
8474;SDS011;4274;52.012;8.448;2022-12-20T03:22:26;45.27;;;4.97;;
8474;SDS011;4274;52.012;8.448;2022-12-20T03:24:51;42.40;;;4.53;;
8474;SDS011;4274;52.012;8.448;2022-12-20T03:27:17;47.07;;;4.70;;
8474;SDS011;4274;52.012;8.448;2022-12-20T03:29:43;43.10;;;4.90;;
8474;SDS011;4274;52.012;8.448;2022-12-20T03:32:09;43.67;;;4.90;;
8474;SDS011;4274;52.012;8.448;2022-12-20T03:34:35;44.47;;;5.30;;
8474;SDS011;4274;52.012;8.448;2022-12-20T03:37:01;42.77;;;4.53;;
8474;SDS011;4274;52.012;8.448;2022-12-20T03:39:27;43.30;;;4.63;;
8474;SDS011;4274;52.012;8.448;2022-12-20T03:41:52;45.67;;;5.00;;
8474;SDS011;4274;52.012;8.448;2022-12-20T03:44:18;42.97;;;5.00;;
8474;SDS011;4274;52.012;8.448;2022-12-20T03:46:43;46.00;;;5.10;;
8474;SDS011;4274;52.012;8.448;2022-12-20T03:49:09;43.97;;;4.70;;
8474;SDS011;4274;52.012;8.448;2022-12-20T03:51:34;44.83;;;4.60;;
8474;SDS011;4274;52.012;8.448;2022-12-20T03:54:00;45.70;;;5.10;;
8474;SDS011;4274;52.012;8.448;2022-12-20T03:56:25;43.63;;;4.80;;
8474;SDS011;4274;52.012;8.448;2022-12-20T03:58:51;44.17;;;4.70;;
8474;SDS011;4274;52.012;8.448;2022-12-20T04:03:47;44.27;;;4.50;;
8474;SDS011;4274;52.012;8.448;2022-12-20T04:06:13;44.00;;;4.90;;
8474;SDS011;4274;52.012;8.448;2022-12-20T04:08:39;44.20;;;4.30;;
8474;SDS011;4274;52.012;8.448;2022-12-20T04:11:04;43.73;;;4.43;;
8474;SDS011;4274;52.012;8.448;2022-12-20T04:13:46;45.13;;;5.10;;
8474;SDS011;4274;52.012;8.448;2022-12-20T04:16:13;43.00;;;4.43;;
8474;SDS011;4274;52.012;8.448;2022-12-20T04:18:40;42.30;;;4.80;;
8474;SDS011;4274;52.012;8.448;2022-12-20T04:21:08;43.93;;;4.63;;
8474;SDS011;4274;52.012;8.448;2022-12-20T04:23:35;44.40;;;4.40;;
8474;SDS011;4274;52.012;8.448;2022-12-20T04:26:03;45.60;;;6.20;;
8474;SDS011;4274;52.012;8.448;2022-12-20T04:28:30;43.63;;;4.33;;
8474;SDS011;4274;52.012;8.448;2022-12-20T04:30:56;43.10;;;5.23;;
8474;SDS011;4274;52.012;8.448;2022-12-20T04:33:22;42.70;;;4.83;;
8474;SDS011;4274;52.012;8.448;2022-12-20T04:35:48;43.40;;;4.57;;
8474;SDS011;4274;52.012;8.448;2022-12-20T04:38:14;49.63;;;4.93;;
8474;SDS011;4274;52.012;8.448;2022-12-20T04:40:39;42.43;;;4.73;;
8474;SDS011;4274;52.012;8.448;2022-12-20T04:43:05;44.97;;;5.27;;
8474;SDS011;4274;52.012;8.448;2022-12-20T04:45:32;45.60;;;4.97;;
8474;SDS011;4274;52.012;8.448;2022-12-20T04:47:58;42.60;;;4.23;;
8474;SDS011;4274;52.012;8.448;2022-12-20T04:50:23;47.10;;;5.10;;
8474;SDS011;4274;52.012;8.448;2022-12-20T04:52:49;44.00;;;4.90;;
8474;SDS011;4274;52.012;8.448;2022-12-20T04:55:37;42.90;;;5.43;;
8474;SDS011;4274;52.012;8.448;2022-12-20T04:58:03;47.90;;;5.30;;
8474;SDS011;4274;52.012;8.448;2022-12-20T05:00:29;44.63;;;5.10;;
8474;SDS011;4274;52.012;8.448;2022-12-20T05:02:56;44.87;;;5.53;;
8474;SDS011;4274;52.012;8.448;2022-12-20T05:05:22;44.83;;;6.27;;
8474;SDS011;4274;52.012;8.448;2022-12-20T05:07:47;44.93;;;5.40;;
8474;SDS011;4274;52.012;8.448;2022-12-20T05:10:13;44.57;;;5.83;;
8474;SDS011;4274;52.012;8.448;2022-12-20T05:12:38;44.23;;;5.10;;
8474;SDS011;4274;52.012;8.448;2022-12-20T05:15:04;43.00;;;5.10;;
8474;SDS011;4274;52.012;8.448;2022-12-20T05:17:31;44.30;;;5.27;;
8474;SDS011;4274;52.012;8.448;2022-12-20T05:19:57;44.60;;;6.10;;
8474;SDS011;4274;52.012;8.448;2022-12-20T05:22:22;45.73;;;5.97;;
8474;SDS011;4274;52.012;8.448;2022-12-20T05:25:08;50.80;;;6.50;;
8474;SDS011;4274;52.012;8.448;2022-12-20T05:27:53;50.43;;;5.77;;
8474;SDS011;4274;52.012;8.448;2022-12-20T05:30:19;44.40;;;5.70;;
8474;SDS011;4274;52.012;8.448;2022-12-20T05:32:44;46.73;;;5.93;;
8474;SDS011;4274;52.012;8.448;2022-12-20T05:35:10;42.87;;;5.43;;
8474;SDS011;4274;52.012;8.448;2022-12-20T05:37:36;47.47;;;6.10;;
8474;SDS011;4274;52.012;8.448;2022-12-20T05:40:01;47.17;;;6.30;;
8474;SDS011;4274;52.012;8.448;2022-12-20T05:42:28;46.03;;;5.63;;
8474;SDS011;4274;52.012;8.448;2022-12-20T05:44:54;43.87;;;5.60;;
8474;SDS011;4274;52.012;8.448;2022-12-20T05:47:19;43.37;;;4.93;;
8474;SDS011;4274;52.012;8.448;2022-12-20T05:49:45;49.83;;;7.10;;
8474;SDS011;4274;52.012;8.448;2022-12-20T05:52:11;43.33;;;5.63;;
8474;SDS011;4274;52.012;8.448;2022-12-20T05:54:36;46.00;;;6.60;;
8474;SDS011;4274;52.012;8.448;2022-12-20T05:57:02;46.30;;;6.50;;
8474;SDS011;4274;52.012;8.448;2022-12-20T05:59:27;54.90;;;8.70;;
8474;SDS011;4274;52.012;8.448;2022-12-20T06:01:53;49.83;;;5.50;;
8474;SDS011;4274;52.012;8.448;2022-12-20T06:04:18;44.53;;;5.80;;
8474;SDS011;4274;52.012;8.448;2022-12-20T06:06:44;48.67;;;6.13;;
8474;SDS011;4274;52.012;8.448;2022-12-20T06:09:10;47.83;;;6.50;;
8474;SDS011;4274;52.012;8.448;2022-12-20T06:11:36;46.13;;;6.67;;
8474;SDS011;4274;52.012;8.448;2022-12-20T06:14:02;45.70;;;5.97;;
8474;SDS011;4274;52.012;8.448;2022-12-20T06:16:28;46.70;;;7.00;;
8474;SDS011;4274;52.012;8.448;2022-12-20T06:18:54;48.80;;;6.30;;
8474;SDS011;4274;52.012;8.448;2022-12-20T06:21:20;45.27;;;6.47;;
8474;SDS011;4274;52.012;8.448;2022-12-20T06:23:45;46.40;;;6.80;;
8474;SDS011;4274;52.012;8.448;2022-12-20T06:26:11;47.87;;;6.30;;
8474;SDS011;4274;52.012;8.448;2022-12-20T06:28:37;51.53;;;7.47;;
8474;SDS011;4274;52.012;8.448;2022-12-20T06:31:09;46.17;;;6.77;;
8474;SDS011;4274;52.012;8.448;2022-12-20T06:33:35;50.83;;;7.80;;
8474;SDS011;4274;52.012;8.448;2022-12-20T06:36:01;43.80;;;6.43;;
8474;SDS011;4274;52.012;8.448;2022-12-20T06:38:27;48.17;;;7.10;;
8474;SDS011;4274;52.012;8.448;2022-12-20T06:40:53;45.90;;;6.97;;
8474;SDS011;4274;52.012;8.448;2022-12-20T06:43:18;45.80;;;7.73;;
8474;SDS011;4274;52.012;8.448;2022-12-20T06:45:44;47.47;;;7.57;;
8474;SDS011;4274;52.012;8.448;2022-12-20T06:48:10;46.23;;;7.40;;
8474;SDS011;4274;52.012;8.448;2022-12-20T06:50:36;45.90;;;7.80;;
8474;SDS011;4274;52.012;8.448;2022-12-20T06:53:02;48.77;;;7.50;;
8474;SDS011;4274;52.012;8.448;2022-12-20T06:55:28;56.60;;;9.60;;
8474;SDS011;4274;52.012;8.448;2022-12-20T06:57:53;45.60;;;7.07;;
8474;SDS011;4274;52.012;8.448;2022-12-20T07:00:20;48.13;;;7.47;;
8474;SDS011;4274;52.012;8.448;2022-12-20T07:02:46;48.00;;;7.57;;
8474;SDS011;4274;52.012;8.448;2022-12-20T07:05:12;48.20;;;8.10;;
8474;SDS011;4274;52.012;8.448;2022-12-20T07:07:37;49.90;;;7.60;;
8474;SDS011;4274;52.012;8.448;2022-12-20T07:10:03;52.23;;;7.73;;
8474;SDS011;4274;52.012;8.448;2022-12-20T07:12:29;47.93;;;7.70;;
8474;SDS011;4274;52.012;8.448;2022-12-20T07:14:55;51.93;;;7.90;;
8474;SDS011;4274;52.012;8.448;2022-12-20T07:17:21;50.53;;;8.37;;
8474;SDS011;4274;52.012;8.448;2022-12-20T07:19:47;54.90;;;7.67;;
8474;SDS011;4274;52.012;8.448;2022-12-20T07:22:12;56.27;;;8.83;;
8474;SDS011;4274;52.012;8.448;2022-12-20T07:24:38;48.90;;;8.57;;
8474;SDS011;4274;52.012;8.448;2022-12-20T07:27:03;51.97;;;9.23;;
8474;SDS011;4274;52.012;8.448;2022-12-20T07:29:29;50.97;;;8.37;;
8474;SDS011;4274;52.012;8.448;2022-12-20T07:31:54;50.93;;;9.13;;
8474;SDS011;4274;52.012;8.448;2022-12-20T07:34:20;56.80;;;11.13;;
8474;SDS011;4274;52.012;8.448;2022-12-20T07:36:46;50.33;;;9.33;;
8474;SDS011;4274;52.012;8.448;2022-12-20T07:39:11;56.63;;;9.43;;
8474;SDS011;4274;52.012;8.448;2022-12-20T07:41:37;52.00;;;10.33;;
8474;SDS011;4274;52.012;8.448;2022-12-20T07:44:03;56.27;;;12.10;;
8474;SDS011;4274;52.012;8.448;2022-12-20T07:46:29;56.83;;;10.20;;
8474;SDS011;4274;52.012;8.448;2022-12-20T07:48:54;53.30;;;11.20;;
8474;SDS011;4274;52.012;8.448;2022-12-20T07:51:22;58.20;;;12.00;;
8474;SDS011;4274;52.012;8.448;2022-12-20T07:53:56;52.63;;;11.17;;
8474;SDS011;4274;52.012;8.448;2022-12-20T07:56:26;53.53;;;11.80;;
8474;SDS011;4274;52.012;8.448;2022-12-20T07:58:53;56.20;;;12.27;;
8474;SDS011;4274;52.012;8.448;2022-12-20T08:01:22;53.97;;;10.77;;
8474;SDS011;4274;52.012;8.448;2022-12-20T08:03:51;52.63;;;11.07;;
8474;SDS011;4274;52.012;8.448;2022-12-20T08:06:20;52.60;;;10.80;;
8474;SDS011;4274;52.012;8.448;2022-12-20T08:08:50;50.50;;;10.67;;
8474;SDS011;4274;52.012;8.448;2022-12-20T08:11:20;58.73;;;11.73;;
8474;SDS011;4274;52.012;8.448;2022-12-20T08:13:48;54.83;;;11.47;;
8474;SDS011;4274;52.012;8.448;2022-12-20T08:16:14;53.50;;;11.87;;
8474;SDS011;4274;52.012;8.448;2022-12-20T08:18:40;52.37;;;11.60;;
8474;SDS011;4274;52.012;8.448;2022-12-20T08:21:05;54.20;;;11.43;;
8474;SDS011;4274;52.012;8.448;2022-12-20T08:23:31;51.37;;;10.83;;
8474;SDS011;4274;52.012;8.448;2022-12-20T08:25:59;53.17;;;11.80;;
8474;SDS011;4274;52.012;8.448;2022-12-20T08:28:25;51.20;;;10.83;;
8474;SDS011;4274;52.012;8.448;2022-12-20T08:30:50;52.57;;;10.00;;
8474;SDS011;4274;52.012;8.448;2022-12-20T08:33:16;52.30;;;11.90;;
8474;SDS011;4274;52.012;8.448;2022-12-20T08:35:42;52.87;;;10.90;;
8474;SDS011;4274;52.012;8.448;2022-12-20T08:38:07;50.07;;;9.73;;
8474;SDS011;4274;52.012;8.448;2022-12-20T08:40:33;54.30;;;10.93;;
8474;SDS011;4274;52.012;8.448;2022-12-20T08:42:58;51.57;;;9.70;;
8474;SDS011;4274;52.012;8.448;2022-12-20T08:45:24;54.57;;;10.23;;
8474;SDS011;4274;52.012;8.448;2022-12-20T08:47:49;50.97;;;10.40;;
8474;SDS011;4274;52.012;8.448;2022-12-20T08:50:15;52.73;;;10.37;;
8474;SDS011;4274;52.012;8.448;2022-12-20T08:52:40;56.23;;;10.60;;
8474;SDS011;4274;52.012;8.448;2022-12-20T08:55:06;52.30;;;9.97;;
8474;SDS011;4274;52.012;8.448;2022-12-20T08:57:32;53.53;;;10.17;;
8474;SDS011;4274;52.012;8.448;2022-12-20T08:59:57;52.03;;;9.50;;
8474;SDS011;4274;52.012;8.448;2022-12-20T09:02:23;48.67;;;9.23;;
8474;SDS011;4274;52.012;8.448;2022-12-20T09:04:49;48.93;;;8.87;;
8474;SDS011;4274;52.012;8.448;2022-12-20T09:07:15;47.90;;;8.70;;
8474;SDS011;4274;52.012;8.448;2022-12-20T09:09:41;52.20;;;9.60;;
8474;SDS011;4274;52.012;8.448;2022-12-20T09:12:06;49.50;;;9.13;;
8474;SDS011;4274;52.012;8.448;2022-12-20T09:14:32;50.47;;;8.10;;
8474;SDS011;4274;52.012;8.448;2022-12-20T09:16:58;51.23;;;8.97;;
8474;SDS011;4274;52.012;8.448;2022-12-20T09:19:23;51.93;;;8.40;;
8474;SDS011;4274;52.012;8.448;2022-12-20T09:21:49;49.07;;;8.43;;
8474;SDS011;4274;52.012;8.448;2022-12-20T09:24:14;48.90;;;8.00;;
8474;SDS011;4274;52.012;8.448;2022-12-20T09:26:41;47.30;;;8.23;;
8474;SDS011;4274;52.012;8.448;2022-12-20T09:29:06;50.83;;;8.57;;
8474;SDS011;4274;52.012;8.448;2022-12-20T09:31:32;48.80;;;9.53;;
8474;SDS011;4274;52.012;8.448;2022-12-20T09:33:58;50.57;;;8.80;;
8474;SDS011;4274;52.012;8.448;2022-12-20T09:36:24;50.70;;;8.17;;
8474;SDS011;4274;52.012;8.448;2022-12-20T09:38:52;46.17;;;7.37;;
8474;SDS011;4274;52.012;8.448;2022-12-20T09:44:03;46.97;;;7.83;;
8474;SDS011;4274;52.012;8.448;2022-12-20T09:46:37;55.80;;;7.63;;
8474;SDS011;4274;52.012;8.448;2022-12-20T09:49:04;50.63;;;8.07;;
8474;SDS011;4274;52.012;8.448;2022-12-20T09:54:26;46.87;;;7.53;;
8474;SDS011;4274;52.012;8.448;2022-12-20T09:59:36;49.57;;;8.50;;
8474;SDS011;4274;52.012;8.448;2022-12-20T10:02:12;46.20;;;7.50;;
8474;SDS011;4274;52.012;8.448;2022-12-20T10:04:44;50.17;;;8.30;;
8474;SDS011;4274;52.012;8.448;2022-12-20T10:15:40;48.43;;;7.60;;
8474;SDS011;4274;52.012;8.448;2022-12-20T10:18:26;48.97;;;8.27;;
8474;SDS011;4274;52.012;8.448;2022-12-20T10:26:22;47.53;;;6.97;;
8474;SDS011;4274;52.012;8.448;2022-12-20T10:28:47;51.30;;;7.50;;
8474;SDS011;4274;52.012;8.448;2022-12-20T10:31:15;49.73;;;7.37;;
8474;SDS011;4274;52.012;8.448;2022-12-20T10:33:42;45.47;;;7.03;;
8474;SDS011;4274;52.012;8.448;2022-12-20T10:36:19;48.70;;;8.00;;
8474;SDS011;4274;52.012;8.448;2022-12-20T10:38:53;48.23;;;7.60;;
8474;SDS011;4274;52.012;8.448;2022-12-20T10:41:27;51.00;;;8.60;;
8474;SDS011;4274;52.012;8.448;2022-12-20T10:44:05;47.07;;;7.30;;
8474;SDS011;4274;52.012;8.448;2022-12-20T10:46:56;45.90;;;6.63;;
8474;SDS011;4274;52.012;8.448;2022-12-20T10:49:27;46.47;;;7.43;;
8474;SDS011;4274;52.012;8.448;2022-12-20T10:54:31;48.00;;;7.17;;
8474;SDS011;4274;52.012;8.448;2022-12-20T10:57:28;46.80;;;6.93;;
8474;SDS011;4274;52.012;8.448;2022-12-20T11:05:00;47.53;;;6.40;;
8474;SDS011;4274;52.012;8.448;2022-12-20T11:07:29;46.40;;;6.80;;
8474;SDS011;4274;52.012;8.448;2022-12-20T11:09:57;45.07;;;6.80;;
8474;SDS011;4274;52.012;8.448;2022-12-20T11:12:25;54.03;;;7.70;;
8474;SDS011;4274;52.012;8.448;2022-12-20T11:14:51;46.30;;;7.03;;
8474;SDS011;4274;52.012;8.448;2022-12-20T11:17:35;46.43;;;6.50;;
8474;SDS011;4274;52.012;8.448;2022-12-20T11:22:49;47.47;;;7.77;;
8474;SDS011;4274;52.012;8.448;2022-12-20T11:25:46;46.70;;;7.17;;
8474;SDS011;4274;52.012;8.448;2022-12-20T11:28:34;47.77;;;7.00;;
8474;SDS011;4274;52.012;8.448;2022-12-20T11:34:08;48.87;;;6.83;;
8474;SDS011;4274;52.012;8.448;2022-12-20T11:47:21;46.23;;;5.93;;
8474;SDS011;4274;52.012;8.448;2022-12-20T11:55:33;49.07;;;7.60;;
8474;SDS011;4274;52.012;8.448;2022-12-20T11:58:05;44.10;;;5.80;;
8474;SDS011;4274;52.012;8.448;2022-12-20T12:00:35;46.83;;;6.20;;
8474;SDS011;4274;52.012;8.448;2022-12-20T12:05:54;49.47;;;6.73;;
8474;SDS011;4274;52.012;8.448;2022-12-20T12:08:26;45.97;;;5.93;;
8474;SDS011;4274;52.012;8.448;2022-12-20T12:10:56;45.83;;;5.80;;
8474;SDS011;4274;52.012;8.448;2022-12-20T12:13:29;50.70;;;5.30;;
8474;SDS011;4274;52.012;8.448;2022-12-20T12:16:04;46.67;;;6.13;;
8474;SDS011;4274;52.012;8.448;2022-12-20T12:18:34;44.13;;;5.40;;
8474;SDS011;4274;52.012;8.448;2022-12-20T12:29:14;50.00;;;6.17;;
8474;SDS011;4274;52.012;8.448;2022-12-20T12:31:50;48.20;;;5.93;;
8474;SDS011;4274;52.012;8.448;2022-12-20T12:37:17;46.70;;;6.37;;
8474;SDS011;4274;52.012;8.448;2022-12-20T12:45:27;44.90;;;6.10;;
8474;SDS011;4274;52.012;8.448;2022-12-20T12:48:35;48.00;;;6.97;;
8474;SDS011;4274;52.012;8.448;2022-12-20T12:51:05;47.73;;;6.70;;
8474;SDS011;4274;52.012;8.448;2022-12-20T12:53:35;45.23;;;5.50;;
8474;SDS011;4274;52.012;8.448;2022-12-20T13:11:50;43.83;;;5.40;;
8474;SDS011;4274;52.012;8.448;2022-12-20T13:16:48;45.37;;;5.00;;
8474;SDS011;4274;52.012;8.448;2022-12-20T13:21:52;42.30;;;4.00;;
8474;SDS011;4274;52.012;8.448;2022-12-20T13:24:29;43.63;;;4.77;;
8474;SDS011;4274;52.012;8.448;2022-12-20T13:26:59;49.33;;;5.20;;
8474;SDS011;4274;52.012;8.448;2022-12-20T13:29:27;49.00;;;5.97;;
8474;SDS011;4274;52.012;8.448;2022-12-20T13:31:58;44.33;;;4.47;;
8474;SDS011;4274;52.012;8.448;2022-12-20T13:34:34;42.40;;;3.87;;
8474;SDS011;4274;52.012;8.448;2022-12-20T13:37:01;45.37;;;5.00;;
8474;SDS011;4274;52.012;8.448;2022-12-20T13:42:16;46.20;;;4.20;;
8474;SDS011;4274;52.012;8.448;2022-12-20T13:44:51;42.43;;;3.57;;
8474;SDS011;4274;52.012;8.448;2022-12-20T13:49:55;44.00;;;3.80;;
8474;SDS011;4274;52.012;8.448;2022-12-20T13:52:26;41.30;;;3.50;;
8474;SDS011;4274;52.012;8.448;2022-12-20T13:55:15;43.70;;;3.57;;
8474;SDS011;4274;52.012;8.448;2022-12-20T13:58:11;49.95;;;3.95;;
8474;SDS011;4274;52.012;8.448;2022-12-20T14:00:40;42.83;;;3.70;;
8474;SDS011;4274;52.012;8.448;2022-12-20T14:03:11;43.90;;;3.93;;
8474;SDS011;4274;52.012;8.448;2022-12-20T14:05:43;45.27;;;4.50;;
8474;SDS011;4274;52.012;8.448;2022-12-20T14:08:13;43.63;;;3.80;;
8474;SDS011;4274;52.012;8.448;2022-12-20T14:10:44;42.90;;;4.07;;
8474;SDS011;4274;52.012;8.448;2022-12-20T14:13:18;45.90;;;3.93;;
8474;SDS011;4274;52.012;8.448;2022-12-20T14:15:44;44.00;;;3.77;;
8474;SDS011;4274;52.012;8.448;2022-12-20T14:18:19;42.50;;;3.80;;
8474;SDS011;4274;52.012;8.448;2022-12-20T14:20:54;44.00;;;4.00;;
8474;SDS011;4274;52.012;8.448;2022-12-20T14:23:22;42.90;;;4.60;;
8474;SDS011;4274;52.012;8.448;2022-12-20T14:26:01;45.87;;;4.00;;
8474;SDS011;4274;52.012;8.448;2022-12-20T14:34:01;42.30;;;4.10;;
8474;SDS011;4274;52.012;8.448;2022-12-20T14:36:35;42.20;;;4.10;;
8474;SDS011;4274;52.012;8.448;2022-12-20T14:39:09;43.90;;;4.40;;
8474;SDS011;4274;52.012;8.448;2022-12-20T14:42:00;42.43;;;3.90;;
8474;SDS011;4274;52.012;8.448;2022-12-20T14:44:46;44.43;;;4.90;;
8474;SDS011;4274;52.012;8.448;2022-12-20T14:47:15;43.70;;;3.87;;
8474;SDS011;4274;52.012;8.448;2022-12-20T14:50:03;43.20;;;4.03;;
8474;SDS011;4274;52.012;8.448;2022-12-20T14:54:59;44.77;;;4.73;;
8474;SDS011;4274;52.012;8.448;2022-12-20T14:57:31;50.17;;;7.20;;
8474;SDS011;4274;52.012;8.448;2022-12-20T15:06:02;48.03;;;6.00;;
8474;SDS011;4274;52.012;8.448;2022-12-20T15:08:12;45.37;;;5.70;;
8474;SDS011;4274;52.012;8.448;2022-12-20T15:10:40;47.33;;;5.70;;
8474;SDS011;4274;52.012;8.448;2022-12-20T15:13:50;42.23;;;4.37;;
8474;SDS011;4274;52.012;8.448;2022-12-20T15:15:57;46.70;;;5.17;;
8474;SDS011;4274;52.012;8.448;2022-12-20T15:18:24;44.80;;;4.90;;
8474;SDS011;4274;52.012;8.448;2022-12-20T15:20:58;44.17;;;5.20;;
8474;SDS011;4274;52.012;8.448;2022-12-20T15:23:30;50.20;;;5.23;;
8474;SDS011;4274;52.012;8.448;2022-12-20T15:25:56;49.50;;;6.87;;
8474;SDS011;4274;52.012;8.448;2022-12-20T15:28:22;48.97;;;6.00;;
8474;SDS011;4274;52.012;8.448;2022-12-20T15:30:50;44.30;;;5.37;;
8474;SDS011;4274;52.012;8.448;2022-12-20T15:33:21;50.73;;;5.30;;
8474;SDS011;4274;52.012;8.448;2022-12-20T15:35:49;44.63;;;4.63;;
8474;SDS011;4274;52.012;8.448;2022-12-20T15:38:16;48.97;;;5.20;;
8474;SDS011;4274;52.012;8.448;2022-12-20T15:40:44;43.27;;;4.83;;
8474;SDS011;4274;52.012;8.448;2022-12-20T15:43:12;42.27;;;4.57;;
8474;SDS011;4274;52.012;8.448;2022-12-20T15:45:40;45.83;;;4.63;;
8474;SDS011;4274;52.012;8.448;2022-12-20T15:48:13;44.77;;;5.40;;
8474;SDS011;4274;52.012;8.448;2022-12-20T15:50:41;44.27;;;5.20;;
8474;SDS011;4274;52.012;8.448;2022-12-20T15:53:12;42.87;;;5.00;;
8474;SDS011;4274;52.012;8.448;2022-12-20T15:55:39;54.33;;;6.00;;
8474;SDS011;4274;52.012;8.448;2022-12-20T15:58:05;55.90;;;7.83;;
8474;SDS011;4274;52.012;8.448;2022-12-20T16:00:30;45.73;;;5.97;;
8474;SDS011;4274;52.012;8.448;2022-12-20T16:02:56;47.03;;;5.83;;
8474;SDS011;4274;52.012;8.448;2022-12-20T16:05:23;50.67;;;7.10;;
8474;SDS011;4274;52.012;8.448;2022-12-20T16:07:48;45.90;;;6.87;;
8474;SDS011;4274;52.012;8.448;2022-12-20T16:10:14;44.57;;;5.80;;
8474;SDS011;4274;52.012;8.448;2022-12-20T16:12:39;48.07;;;6.20;;
8474;SDS011;4274;52.012;8.448;2022-12-20T16:15:10;56.92;;;8.02;;
8474;SDS011;4274;52.012;8.448;2022-12-20T16:17:44;47.07;;;6.17;;
8474;SDS011;4274;52.012;8.448;2022-12-20T16:20:10;46.97;;;6.20;;
8474;SDS011;4274;52.012;8.448;2022-12-20T16:22:36;52.73;;;6.47;;
8474;SDS011;4274;52.012;8.448;2022-12-20T16:25:01;45.50;;;6.03;;
8474;SDS011;4274;52.012;8.448;2022-12-20T16:27:27;49.77;;;7.27;;
8474;SDS011;4274;52.012;8.448;2022-12-20T16:29:52;51.13;;;9.00;;
8474;SDS011;4274;52.012;8.448;2022-12-20T16:32:18;52.53;;;9.07;;
8474;SDS011;4274;52.012;8.448;2022-12-20T16:34:48;59.13;;;8.90;;
8474;SDS011;4274;52.012;8.448;2022-12-20T16:37:15;60.93;;;10.77;;
8474;SDS011;4274;52.012;8.448;2022-12-20T16:39:41;64.10;;;10.93;;
8474;SDS011;4274;52.012;8.448;2022-12-20T16:42:13;54.40;;;10.03;;
8474;SDS011;4274;52.012;8.448;2022-12-20T16:44:40;59.80;;;12.00;;
8474;SDS011;4274;52.012;8.448;2022-12-20T16:47:08;123.70;;;34.53;;
8474;SDS011;4274;52.012;8.448;2022-12-20T16:49:34;63.90;;;14.40;;
8474;SDS011;4274;52.012;8.448;2022-12-20T16:52:00;54.93;;;11.47;;
8474;SDS011;4274;52.012;8.448;2022-12-20T16:54:28;58.23;;;13.60;;
8474;SDS011;4274;52.012;8.448;2022-12-20T16:56:54;60.37;;;13.27;;
8474;SDS011;4274;52.012;8.448;2022-12-20T16:59:23;55.73;;;11.10;;
8474;SDS011;4274;52.012;8.448;2022-12-20T17:01:53;50.43;;;9.87;;
8474;SDS011;4274;52.012;8.448;2022-12-20T17:04:20;59.27;;;9.80;;
8474;SDS011;4274;52.012;8.448;2022-12-20T17:06:46;52.00;;;10.43;;
8474;SDS011;4274;52.012;8.448;2022-12-20T17:09:12;58.77;;;10.93;;
8474;SDS011;4274;52.012;8.448;2022-12-20T17:11:40;57.93;;;10.27;;
8474;SDS011;4274;52.012;8.448;2022-12-20T17:14:06;57.00;;;10.70;;
8474;SDS011;4274;52.012;8.448;2022-12-20T17:16:31;51.80;;;9.67;;
8474;SDS011;4274;52.012;8.448;2022-12-20T17:18:57;51.10;;;9.57;;
8474;SDS011;4274;52.012;8.448;2022-12-20T17:23:50;52.47;;;10.20;;
8474;SDS011;4274;52.012;8.448;2022-12-20T17:26:18;51.73;;;10.07;;